KMSN/MSN METAR and TAF weather

Enter ICAO airport designator
Station Type Date Time Source
KMSN METAR 2020/01/20 12:53 UTC NOAA

KMSN 201253Z 31003KT 10SM -SN OVC029 M09/M12 A3057 RMK AO2 SLP370 P0000 T10941117


Station Type Date Time Source
KMSN Decoded METAR 2020/01/20 12:53 UTC NOAA

MADISON DANE COUNTY RGNL, WI, United States (KMSN) 43-08N 89-21W 261M
Jan 20, 2020 - 07:53 AM EST / 2020.01.20 1253 UTC
Wind: from the NW (310 degrees) at 3 MPH (3 KT):0
Visibility: 10 mile(s):0
Sky conditions: overcast
Weather: light snow
Precipitation last hour: A trace
Temperature: 15.1 F (-9.4 C)
Dew Point: 10.9 F (-11.7 C)
Relative Humidity: 83%
Pressure (altimeter): 30.57 in. Hg (1035 hPa)
ob: KMSN 201253Z 31003KT 10SM -SN OVC029 M09/M12 A3057 RMK AO2 SLP370 P0000 T10941117
cycle: 13

Station Type Date Time Source
KMSN TAF 2020/01/20 12:24 UTC NOAA

TAF KMSN 201121Z 2012/2112 VRB03KT P6SM VCSH OVC030
TEMPO 2012/2016 -SN
FM201700 VRB04KT P6SM SCT040
FM202000 34005KT P6SM SCT060
FM202200 33005KT P6SM SCT150
FM210000 VRB04KT P6SM FEW200

Example: see airport list